DSTT2: Red River at Denison Dam nr Denison, TX

Data processed at Tue May 21 2019 21:50


All information presented herein is the property of the government of the United States of America and may be revised or deleted at any time without prior notice.
Dissemination of this information without the expressed written consent of the Public Affairs Office, Tulsa District U.S. Army Corps of Engineers is strictly prohibited.
These data are gathered electronically and, as presented, have not undergone any form of quality control. These data are not guaranteed to be valid or correct.
Go to home page.
Go to station list.
Go to home page.

Upstream stations:

Downstream station:
Previous Day
Next Day
Current Day
    
SHEF ID:       DSTT2     Red River at Denison Dam nr Deni
STATION TYPE:  

               PRECIP     STAGE  RIV-FLOW  BAT-LOAD
                   in        ft       cfs      volt
              Ccp-Rev   Ccp-Rev   Ccp-Rev   Ccp-Rev
(US/Central)
05/21 00:00      0.00     16.55     37736     12.97
05/21 01:00      0.00     16.45     37328     12.97
05/21 02:00      0.00     16.48     37450     12.97
05/21 03:00      0.00     16.58     37859     12.97
05/21 04:00      0.00     16.54     37695     12.97
05/21 05:00      0.00     16.41     37165     12.97
05/21 06:00      0.00     16.51     37573     12.97
05/21 07:00      0.45     16.51     37573     12.89
05/21 08:00      0.01     16.43     37246     12.89
05/21 09:00      0.01     16.45     37328     12.97
05/21 10:00      0.00     16.32     36800     13.37
05/21 11:00      0.00     16.29     36678     13.29
05/21 12:00      0.00     15.52     33083     13.37
05/21 13:00      0.01     15.22     31643     13.44
05/21 14:00      ----     15.07     30933      ----
05/21 15:00      ----     14.97     30463     13.76
05/21 16:00      0.00     15.00     30604     13.53
05/21 17:00      0.00     14.95     30369     13.44
05/21 18:00      0.00     14.97     30463     13.29
05/21 19:00      0.00     14.87     29996     13.29
05/21 20:00      0.00     14.87     29996     13.29
05/21 21:00      0.00     14.97     30463     13.13
05/21 22:00      ----      ----      ----      ----
05/21 23:00      ----      ----      ----      ----